sensor_id;sensor_type;location;lat;lon;timestamp;P1;durP1;ratioP1;P2;durP2;ratioP2
76617;SDS011;65509;42.816;74.648;2024-02-28T00:02:07;276.73;;;77.68;;
76617;SDS011;65509;42.816;74.648;2024-02-28T00:04:32;322.55;;;83.75;;
76617;SDS011;65509;42.816;74.648;2024-02-28T00:06:57;351.92;;;82.95;;
76617;SDS011;65509;42.816;74.648;2024-02-28T00:09:23;303.42;;;79.00;;
76617;SDS011;65509;42.816;74.648;2024-02-28T00:11:49;367.42;;;86.30;;
76617;SDS011;65509;42.816;74.648;2024-02-28T00:14:14;294.92;;;82.88;;
76617;SDS011;65509;42.816;74.648;2024-02-28T00:16:40;332.58;;;82.03;;
76617;SDS011;65509;42.816;74.648;2024-02-28T00:19:08;333.15;;;79.15;;
76617;SDS011;65509;42.816;74.648;2024-02-28T00:21:34;307.15;;;83.07;;
76617;SDS011;65509;42.816;74.648;2024-02-28T00:23:59;313.27;;;78.07;;
76617;SDS011;65509;42.816;74.648;2024-02-28T00:26:25;277.27;;;72.25;;
76617;SDS011;65509;42.816;74.648;2024-02-28T00:28:51;333.17;;;81.10;;
76617;SDS011;65509;42.816;74.648;2024-02-28T00:31:17;277.65;;;77.70;;
76617;SDS011;65509;42.816;74.648;2024-02-28T00:33:42;310.15;;;77.90;;
76617;SDS011;65509;42.816;74.648;2024-02-28T00:36:08;319.27;;;77.43;;
76617;SDS011;65509;42.816;74.648;2024-02-28T00:38:33;320.30;;;77.80;;
76617;SDS011;65509;42.816;74.648;2024-02-28T00:40:58;279.52;;;74.30;;
76617;SDS011;65509;42.816;74.648;2024-02-28T00:43:24;342.42;;;73.13;;
76617;SDS011;65509;42.816;74.648;2024-02-28T00:45:49;252.13;;;68.75;;
76617;SDS011;65509;42.816;74.648;2024-02-28T00:48:15;261.30;;;70.22;;
76617;SDS011;65509;42.816;74.648;2024-02-28T00:50:40;259.95;;;68.20;;
76617;SDS011;65509;42.816;74.648;2024-02-28T00:53:06;242.60;;;65.53;;
76617;SDS011;65509;42.816;74.648;2024-02-28T00:55:31;309.27;;;74.47;;
76617;SDS011;65509;42.816;74.648;2024-02-28T00:57:57;319.83;;;74.30;;
76617;SDS011;65509;42.816;74.648;2024-02-28T01:00:22;407.83;;;76.15;;
76617;SDS011;65509;42.816;74.648;2024-02-28T01:02:47;331.70;;;73.75;;
76617;SDS011;65509;42.816;74.648;2024-02-28T01:05:13;344.55;;;71.63;;
76617;SDS011;65509;42.816;74.648;2024-02-28T01:07:38;232.80;;;60.10;;
76617;SDS011;65509;42.816;74.648;2024-02-28T01:10:04;265.42;;;63.95;;
76617;SDS011;65509;42.816;74.648;2024-02-28T01:12:29;298.55;;;71.65;;
76617;SDS011;65509;42.816;74.648;2024-02-28T01:14:55;306.20;;;71.40;;
76617;SDS011;65509;42.816;74.648;2024-02-28T01:17:20;264.48;;;66.72;;
76617;SDS011;65509;42.816;74.648;2024-02-28T01:19:46;288.08;;;65.97;;
76617;SDS011;65509;42.816;74.648;2024-02-28T01:22:12;300.17;;;67.28;;
76617;SDS011;65509;42.816;74.648;2024-02-28T01:24:37;280.73;;;60.72;;
76617;SDS011;65509;42.816;74.648;2024-02-28T01:27:03;301.80;;;65.00;;
76617;SDS011;65509;42.816;74.648;2024-02-28T01:29:28;244.20;;;59.80;;
76617;SDS011;65509;42.816;74.648;2024-02-28T01:31:55;279.73;;;63.17;;
76617;SDS011;65509;42.816;74.648;2024-02-28T01:34:20;254.68;;;68.22;;
76617;SDS011;65509;42.816;74.648;2024-02-28T01:36:46;257.58;;;63.70;;
76617;SDS011;65509;42.816;74.648;2024-02-28T01:39:11;250.50;;;59.92;;
76617;SDS011;65509;42.816;74.648;2024-02-28T01:41:36;259.75;;;61.72;;
76617;SDS011;65509;42.816;74.648;2024-02-28T01:44:02;326.95;;;68.07;;
76617;SDS011;65509;42.816;74.648;2024-02-28T01:46:27;321.83;;;64.00;;
76617;SDS011;65509;42.816;74.648;2024-02-28T01:48:53;256.05;;;59.35;;
76617;SDS011;65509;42.816;74.648;2024-02-28T01:51:20;250.77;;;59.55;;
76617;SDS011;65509;42.816;74.648;2024-02-28T01:53:46;221.25;;;55.25;;
76617;SDS011;65509;42.816;74.648;2024-02-28T01:56:13;251.45;;;54.13;;
76617;SDS011;65509;42.816;74.648;2024-02-28T01:58:41;203.52;;;52.97;;
76617;SDS011;65509;42.816;74.648;2024-02-28T02:01:07;237.85;;;52.33;;
76617;SDS011;65509;42.816;74.648;2024-02-28T02:03:34;194.95;;;51.00;;
76617;SDS011;65509;42.816;74.648;2024-02-28T02:06:00;216.30;;;47.40;;
76617;SDS011;65509;42.816;74.648;2024-02-28T02:08:26;202.18;;;47.72;;
76617;SDS011;65509;42.816;74.648;2024-02-28T02:10:51;220.80;;;49.05;;
76617;SDS011;65509;42.816;74.648;2024-02-28T02:13:17;184.27;;;44.75;;
76617;SDS011;65509;42.816;74.648;2024-02-28T02:15:42;231.30;;;48.67;;
76617;SDS011;65509;42.816;74.648;2024-02-28T02:18:07;226.88;;;46.45;;
76617;SDS011;65509;42.816;74.648;2024-02-28T02:20:33;266.08;;;48.00;;
76617;SDS011;65509;42.816;74.648;2024-02-28T02:23:01;216.05;;;48.13;;
76617;SDS011;65509;42.816;74.648;2024-02-28T02:25:27;213.25;;;45.83;;
76617;SDS011;65509;42.816;74.648;2024-02-28T02:27:52;225.15;;;49.92;;
76617;SDS011;65509;42.816;74.648;2024-02-28T02:30:18;197.50;;;47.50;;
76617;SDS011;65509;42.816;74.648;2024-02-28T02:32:43;191.45;;;46.35;;
76617;SDS011;65509;42.816;74.648;2024-02-28T02:35:08;185.98;;;45.17;;
76617;SDS011;65509;42.816;74.648;2024-02-28T02:37:34;167.77;;;41.67;;
76617;SDS011;65509;42.816;74.648;2024-02-28T02:40:01;194.77;;;43.00;;
76617;SDS011;65509;42.816;74.648;2024-02-28T02:42:29;189.02;;;42.78;;
76617;SDS011;65509;42.816;74.648;2024-02-28T02:44:54;193.55;;;43.70;;
76617;SDS011;65509;42.816;74.648;2024-02-28T02:47:20;248.30;;;51.97;;
76617;SDS011;65509;42.816;74.648;2024-02-28T02:49:45;180.32;;;46.38;;
76617;SDS011;65509;42.816;74.648;2024-02-28T02:52:11;143.27;;;44.22;;
76617;SDS011;65509;42.816;74.648;2024-02-28T02:54:36;157.45;;;40.88;;
76617;SDS011;65509;42.816;74.648;2024-02-28T02:57:01;173.70;;;43.60;;
76617;SDS011;65509;42.816;74.648;2024-02-28T02:59:28;164.98;;;43.25;;
76617;SDS011;65509;42.816;74.648;2024-02-28T03:01:53;178.07;;;42.58;;
76617;SDS011;65509;42.816;74.648;2024-02-28T03:04:18;183.60;;;44.22;;
76617;SDS011;65509;42.816;74.648;2024-02-28T03:06:44;159.93;;;42.88;;
76617;SDS011;65509;42.816;74.648;2024-02-28T03:09:09;162.35;;;41.85;;
76617;SDS011;65509;42.816;74.648;2024-02-28T03:11:34;161.20;;;41.25;;
76617;SDS011;65509;42.816;74.648;2024-02-28T03:14:00;184.93;;;44.92;;
76617;SDS011;65509;42.816;74.648;2024-02-28T03:16:26;134.63;;;36.58;;
76617;SDS011;65509;42.816;74.648;2024-02-28T03:18:51;121.22;;;32.13;;
76617;SDS011;65509;42.816;74.648;2024-02-28T03:21:17;106.70;;;29.98;;
76617;SDS011;65509;42.816;74.648;2024-02-28T03:23:42;120.80;;;31.17;;
76617;SDS011;65509;42.816;74.648;2024-02-28T03:26:08;122.13;;;31.92;;
76617;SDS011;65509;42.816;74.648;2024-02-28T03:28:33;111.88;;;32.33;;
76617;SDS011;65509;42.816;74.648;2024-02-28T03:30:59;137.10;;;33.28;;
76617;SDS011;65509;42.816;74.648;2024-02-28T03:33:25;123.30;;;31.50;;
76617;SDS011;65509;42.816;74.648;2024-02-28T03:35:56;131.57;;;34.60;;
76617;SDS011;65509;42.816;74.648;2024-02-28T03:38:22;147.00;;;37.05;;
76617;SDS011;65509;42.816;74.648;2024-02-28T03:40:47;284.83;;;88.68;;
76617;SDS011;65509;42.816;74.648;2024-02-28T03:43:12;157.23;;;46.13;;
76617;SDS011;65509;42.816;74.648;2024-02-28T03:45:38;209.77;;;68.35;;
76617;SDS011;65509;42.816;74.648;2024-02-28T03:48:04;160.70;;;45.85;;
76617;SDS011;65509;42.816;74.648;2024-02-28T03:50:29;103.47;;;33.45;;
76617;SDS011;65509;42.816;74.648;2024-02-28T03:52:55;112.50;;;33.63;;
76617;SDS011;65509;42.816;74.648;2024-02-28T03:55:20;133.18;;;35.72;;
76617;SDS011;65509;42.816;74.648;2024-02-28T03:57:48;153.85;;;56.80;;
76617;SDS011;65509;42.816;74.648;2024-02-28T04:00:16;100.45;;;38.50;;
76617;SDS011;65509;42.816;74.648;2024-02-28T04:02:42;189.98;;;64.03;;
76617;SDS011;65509;42.816;74.648;2024-02-28T04:05:09;141.77;;;39.20;;
76617;SDS011;65509;42.816;74.648;2024-02-28T04:07:35;113.43;;;34.30;;
76617;SDS011;65509;42.816;74.648;2024-02-28T04:10:00;137.18;;;40.60;;
76617;SDS011;65509;42.816;74.648;2024-02-28T04:12:26;189.55;;;75.63;;
76617;SDS011;65509;42.816;74.648;2024-02-28T04:14:51;160.45;;;50.97;;
76617;SDS011;65509;42.816;74.648;2024-02-28T04:17:16;114.93;;;39.58;;
76617;SDS011;65509;42.816;74.648;2024-02-28T04:19:42;159.25;;;44.95;;
76617;SDS011;65509;42.816;74.648;2024-02-28T04:22:07;145.57;;;39.67;;
76617;SDS011;65509;42.816;74.648;2024-02-28T04:24:32;125.53;;;38.65;;
76617;SDS011;65509;42.816;74.648;2024-02-28T04:26:58;134.05;;;36.10;;
76617;SDS011;65509;42.816;74.648;2024-02-28T04:29:25;107.07;;;35.47;;
76617;SDS011;65509;42.816;74.648;2024-02-28T04:31:50;124.75;;;39.90;;
76617;SDS011;65509;42.816;74.648;2024-02-28T04:34:15;142.32;;;40.63;;
76617;SDS011;65509;42.816;74.648;2024-02-28T04:36:41;149.18;;;48.70;;
76617;SDS011;65509;42.816;74.648;2024-02-28T04:39:06;174.57;;;53.17;;
76617;SDS011;65509;42.816;74.648;2024-02-28T04:41:33;139.35;;;48.50;;
76617;SDS011;65509;42.816;74.648;2024-02-28T04:43:59;157.35;;;50.08;;
76617;SDS011;65509;42.816;74.648;2024-02-28T04:46:24;160.82;;;48.75;;
76617;SDS011;65509;42.816;74.648;2024-02-28T04:48:50;161.48;;;48.58;;
76617;SDS011;65509;42.816;74.648;2024-02-28T04:51:16;186.63;;;54.95;;
76617;SDS011;65509;42.816;74.648;2024-02-28T04:53:44;190.75;;;54.85;;
76617;SDS011;65509;42.816;74.648;2024-02-28T04:56:09;221.57;;;66.07;;
76617;SDS011;65509;42.816;74.648;2024-02-28T04:58:35;195.10;;;62.70;;
76617;SDS011;65509;42.816;74.648;2024-02-28T05:01:01;212.75;;;58.25;;
76617;SDS011;65509;42.816;74.648;2024-02-28T05:03:26;195.27;;;60.05;;
76617;SDS011;65509;42.816;74.648;2024-02-28T05:05:51;191.45;;;58.15;;
76617;SDS011;65509;42.816;74.648;2024-02-28T05:08:19;215.23;;;65.78;;
76617;SDS011;65509;42.816;74.648;2024-02-28T05:10:45;177.98;;;51.72;;
76617;SDS011;65509;42.816;74.648;2024-02-28T05:13:10;167.85;;;47.50;;
76617;SDS011;65509;42.816;74.648;2024-02-28T05:15:35;131.05;;;42.38;;
76617;SDS011;65509;42.816;74.648;2024-02-28T05:18:01;164.30;;;46.88;;
76617;SDS011;65509;42.816;74.648;2024-02-28T05:20:26;201.70;;;55.35;;
76617;SDS011;65509;42.816;74.648;2024-02-28T05:22:52;196.35;;;54.20;;
76617;SDS011;65509;42.816;74.648;2024-02-28T05:25:17;160.63;;;47.22;;
76617;SDS011;65509;42.816;74.648;2024-02-28T05:27:43;162.60;;;49.55;;
76617;SDS011;65509;42.816;74.648;2024-02-28T05:30:08;186.82;;;53.45;;
76617;SDS011;65509;42.816;74.648;2024-02-28T05:32:34;166.73;;;48.60;;
76617;SDS011;65509;42.816;74.648;2024-02-28T05:34:59;222.05;;;60.72;;
76617;SDS011;65509;42.816;74.648;2024-02-28T05:37:25;182.48;;;50.97;;
76617;SDS011;65509;42.816;74.648;2024-02-28T05:39:50;202.23;;;55.20;;
76617;SDS011;65509;42.816;74.648;2024-02-28T05:42:16;197.00;;;54.10;;
76617;SDS011;65509;42.816;74.648;2024-02-28T05:44:47;190.82;;;54.45;;
76617;SDS011;65509;42.816;74.648;2024-02-28T05:47:12;215.60;;;88.90;;
76617;SDS011;65509;42.816;74.648;2024-02-28T05:49:38;189.70;;;57.22;;
76617;SDS011;65509;42.816;74.648;2024-02-28T05:52:04;211.63;;;89.22;;
76617;SDS011;65509;42.816;74.648;2024-02-28T05:54:29;197.57;;;56.97;;
76617;SDS011;65509;42.816;74.648;2024-02-28T05:56:55;209.68;;;57.72;;
76617;SDS011;65509;42.816;74.648;2024-02-28T05:59:20;202.85;;;88.45;;
76617;SDS011;65509;42.816;74.648;2024-02-28T06:01:47;209.05;;;60.05;;
76617;SDS011;65509;42.816;74.648;2024-02-28T06:04:12;238.10;;;101.47;;
76617;SDS011;65509;42.816;74.648;2024-02-28T06:06:38;200.90;;;96.80;;
76617;SDS011;65509;42.816;74.648;2024-02-28T06:09:03;224.10;;;99.45;;
76617;SDS011;65509;42.816;74.648;2024-02-28T06:11:29;220.15;;;70.15;;
76617;SDS011;65509;42.816;74.648;2024-02-28T06:13:55;240.35;;;71.72;;
76617;SDS011;65509;42.816;74.648;2024-02-28T06:16:20;273.45;;;77.95;;
76617;SDS011;65509;42.816;74.648;2024-02-28T06:18:49;323.58;;;86.18;;
76617;SDS011;65509;42.816;74.648;2024-02-28T06:21:17;318.65;;;92.57;;
76617;SDS011;65509;42.816;74.648;2024-02-28T06:23:42;323.92;;;94.72;;
76617;SDS011;65509;42.816;74.648;2024-02-28T06:26:08;336.05;;;142.05;;
76617;SDS011;65509;42.816;74.648;2024-02-28T06:28:40;312.83;;;94.75;;
76617;SDS011;65509;42.816;74.648;2024-02-28T06:31:11;326.90;;;143.88;;
76617;SDS011;65509;42.816;74.648;2024-02-28T06:33:37;309.45;;;142.25;;
76617;SDS011;65509;42.816;74.648;2024-02-28T06:36:02;295.25;;;87.03;;
76617;SDS011;65509;42.816;74.648;2024-02-28T06:38:27;316.17;;;88.47;;
76617;SDS011;65509;42.816;74.648;2024-02-28T06:40:53;301.90;;;86.85;;
76617;SDS011;65509;42.816;74.648;2024-02-28T06:43:18;301.85;;;131.43;;
76617;SDS011;65509;42.816;74.648;2024-02-28T06:45:45;283.48;;;130.80;;
76617;SDS011;65509;42.816;74.648;2024-02-28T06:48:12;279.10;;;123.68;;
76617;SDS011;65509;42.816;74.648;2024-02-28T06:50:40;345.67;;;93.05;;
76617;SDS011;65509;42.816;74.648;2024-02-28T06:53:15;303.23;;;134.80;;
76617;SDS011;65509;42.816;74.648;2024-02-28T06:55:40;314.95;;;137.75;;
76617;SDS011;65509;42.816;74.648;2024-02-28T06:58:06;305.92;;;133.00;;
76617;SDS011;65509;42.816;74.648;2024-02-28T07:00:31;306.38;;;93.03;;
76617;SDS011;65509;42.816;74.648;2024-02-28T07:02:56;323.65;;;91.40;;
76617;SDS011;65509;42.816;74.648;2024-02-28T07:05:22;301.17;;;137.85;;
76617;SDS011;65509;42.816;74.648;2024-02-28T07:07:47;325.77;;;144.00;;
76617;SDS011;65509;42.816;74.648;2024-02-28T07:10:13;423.85;;;193.07;;
76617;SDS011;65509;42.816;74.648;2024-02-28T07:12:38;318.15;;;142.82;;
76617;SDS011;65509;42.816;74.648;2024-02-28T07:15:04;341.83;;;96.32;;
76617;SDS011;65509;42.816;74.648;2024-02-28T07:17:29;320.05;;;92.18;;
76617;SDS011;65509;42.816;74.648;2024-02-28T07:19:55;313.45;;;142.60;;
76617;SDS011;65509;42.816;74.648;2024-02-28T07:22:20;363.58;;;147.88;;
76617;SDS011;65509;42.816;74.648;2024-02-28T07:24:46;325.80;;;141.80;;
76617;SDS011;65509;42.816;74.648;2024-02-28T07:27:11;381.15;;;160.30;;
76617;SDS011;65509;42.816;74.648;2024-02-28T07:29:37;373.95;;;159.38;;
76617;SDS011;65509;42.816;74.648;2024-02-28T07:32:02;338.98;;;155.32;;
76617;SDS011;65509;42.816;74.648;2024-02-28T07:34:31;387.17;;;164.90;;
76617;SDS011;65509;42.816;74.648;2024-02-28T07:36:56;377.05;;;165.30;;
76617;SDS011;65509;42.816;74.648;2024-02-28T07:39:22;403.40;;;165.07;;
76617;SDS011;65509;42.816;74.648;2024-02-28T07:41:49;374.15;;;168.05;;
76617;SDS011;65509;42.816;74.648;2024-02-28T07:44:15;395.80;;;166.30;;
76617;SDS011;65509;42.816;74.648;2024-02-28T07:46:41;362.75;;;161.82;;
76617;SDS011;65509;42.816;74.648;2024-02-28T07:49:06;373.08;;;157.23;;
76617;SDS011;65509;42.816;74.648;2024-02-28T07:51:32;391.60;;;165.70;;
76617;SDS011;65509;42.816;74.648;2024-02-28T07:53:57;379.92;;;164.75;;
76617;SDS011;65509;42.816;74.648;2024-02-28T07:56:23;362.45;;;160.13;;
76617;SDS011;65509;42.816;74.648;2024-02-28T07:58:48;381.08;;;164.73;;
76617;SDS011;65509;42.816;74.648;2024-02-28T08:01:13;351.73;;;154.73;;
76617;SDS011;65509;42.816;74.648;2024-02-28T08:03:39;347.02;;;153.70;;
76617;SDS011;65509;42.816;74.648;2024-02-28T08:06:05;355.98;;;156.90;;
76617;SDS011;65509;42.816;74.648;2024-02-28T08:08:34;362.70;;;156.15;;
76617;SDS011;65509;42.816;74.648;2024-02-28T08:10:59;346.15;;;154.90;;
76617;SDS011;65509;42.816;74.648;2024-02-28T08:13:25;328.00;;;146.38;;
76617;SDS011;65509;42.816;74.648;2024-02-28T08:15:53;337.65;;;149.50;;
76617;SDS011;65509;42.816;74.648;2024-02-28T08:18:19;367.30;;;152.55;;
76617;SDS011;65509;42.816;74.648;2024-02-28T08:20:45;335.20;;;150.15;;
76617;SDS011;65509;42.816;74.648;2024-02-28T08:23:10;361.73;;;154.88;;
76617;SDS011;65509;42.816;74.648;2024-02-28T08:25:36;298.08;;;138.75;;
76617;SDS011;65509;42.816;74.648;2024-02-28T08:28:01;310.73;;;140.82;;
76617;SDS011;65509;42.816;74.648;2024-02-28T08:30:26;351.42;;;143.85;;
76617;SDS011;65509;42.816;74.648;2024-02-28T08:32:52;330.08;;;145.15;;
76617;SDS011;65509;42.816;74.648;2024-02-28T08:35:18;324.25;;;143.73;;
76617;SDS011;65509;42.816;74.648;2024-02-28T08:37:43;293.73;;;138.18;;
76617;SDS011;65509;42.816;74.648;2024-02-28T08:40:09;328.02;;;140.70;;
76617;SDS011;65509;42.816;74.648;2024-02-28T08:42:35;317.65;;;137.52;;
76617;SDS011;65509;42.816;74.648;2024-02-28T08:45:00;323.38;;;145.35;;
76617;SDS011;65509;42.816;74.648;2024-02-28T08:47:26;344.65;;;155.63;;
76617;SDS011;65509;42.816;74.648;2024-02-28T08:49:52;300.48;;;141.57;;
76617;SDS011;65509;42.816;74.648;2024-02-28T08:52:17;286.50;;;132.95;;
76617;SDS011;65509;42.816;74.648;2024-02-28T08:54:43;284.02;;;133.18;;
76617;SDS011;65509;42.816;74.648;2024-02-28T08:57:08;310.70;;;134.68;;
76617;SDS011;65509;42.816;74.648;2024-02-28T08:59:34;297.83;;;129.50;;
76617;SDS011;65509;42.816;74.648;2024-02-28T09:01:59;309.85;;;136.18;;
76617;SDS011;65509;42.816;74.648;2024-02-28T09:04:24;303.88;;;129.38;;
76617;SDS011;65509;42.816;74.648;2024-02-28T09:06:50;280.33;;;128.32;;
76617;SDS011;65509;42.816;74.648;2024-02-28T09:09:15;324.85;;;134.68;;
76617;SDS011;65509;42.816;74.648;2024-02-28T09:11:42;283.95;;;124.70;;
76617;SDS011;65509;42.816;74.648;2024-02-28T09:14:07;280.85;;;128.15;;
76617;SDS011;65509;42.816;74.648;2024-02-28T09:16:32;269.60;;;123.15;;
76617;SDS011;65509;42.816;74.648;2024-02-28T09:18:58;282.65;;;122.38;;
76617;SDS011;65509;42.816;74.648;2024-02-28T09:21:23;274.45;;;118.00;;
76617;SDS011;65509;42.816;74.648;2024-02-28T09:23:49;287.70;;;125.80;;
76617;SDS011;65509;42.816;74.648;2024-02-28T09:26:14;312.30;;;130.88;;
76617;SDS011;65509;42.816;74.648;2024-02-28T09:31:42;290.95;;;127.72;;
76617;SDS011;65509;42.816;74.648;2024-02-28T09:34:07;251.35;;;116.93;;
76617;SDS011;65509;42.816;74.648;2024-02-28T09:36:43;234.15;;;111.60;;
76617;SDS011;65509;42.816;74.648;2024-02-28T09:39:11;268.25;;;119.25;;
76617;SDS011;65509;42.816;74.648;2024-02-28T09:41:36;228.65;;;111.00;;
76617;SDS011;65509;42.816;74.648;2024-02-28T09:44:02;241.15;;;115.45;;
76617;SDS011;65509;42.816;74.648;2024-02-28T09:46:28;272.52;;;121.13;;
76617;SDS011;65509;42.816;74.648;2024-02-28T09:48:56;258.70;;;120.38;;
76617;SDS011;65509;42.816;74.648;2024-02-28T09:51:21;269.90;;;118.22;;
76617;SDS011;65509;42.816;74.648;2024-02-28T09:53:49;298.55;;;134.60;;
76617;SDS011;65509;42.816;74.648;2024-02-28T09:56:15;286.08;;;131.52;;
76617;SDS011;65509;42.816;74.648;2024-02-28T09:58:41;264.05;;;120.18;;
76617;SDS011;65509;42.816;74.648;2024-02-28T10:01:07;262.13;;;116.65;;
76617;SDS011;65509;42.816;74.648;2024-02-28T10:03:34;239.25;;;113.97;;
76617;SDS011;65509;42.816;74.648;2024-02-28T10:06:00;243.52;;;109.82;;
76617;SDS011;65509;42.816;74.648;2024-02-28T10:08:28;275.05;;;126.57;;
76617;SDS011;65509;42.816;74.648;2024-02-28T10:10:54;238.63;;;117.03;;
76617;SDS011;65509;42.816;74.648;2024-02-28T10:13:21;286.05;;;120.00;;
76617;SDS011;65509;42.816;74.648;2024-02-28T10:15:47;252.85;;;116.47;;
76617;SDS011;65509;42.816;74.648;2024-02-28T10:18:15;291.00;;;129.10;;
76617;SDS011;65509;42.816;74.648;2024-02-28T10:20:42;262.15;;;122.93;;
76617;SDS011;65509;42.816;74.648;2024-02-28T10:23:10;271.08;;;121.78;;
76617;SDS011;65509;42.816;74.648;2024-02-28T10:25:45;265.38;;;117.18;;
76617;SDS011;65509;42.816;74.648;2024-02-28T10:30:42;270.83;;;120.75;;
76617;SDS011;65509;42.816;74.648;2024-02-28T10:33:14;293.02;;;124.97;;
76617;SDS011;65509;42.816;74.648;2024-02-28T10:35:40;251.43;;;117.93;;
76617;SDS011;65509;42.816;74.648;2024-02-28T10:38:06;255.23;;;117.28;;
76617;SDS011;65509;42.816;74.648;2024-02-28T10:40:31;277.05;;;117.50;;
76617;SDS011;65509;42.816;74.648;2024-02-28T10:42:58;243.60;;;109.68;;
76617;SDS011;65509;42.816;74.648;2024-02-28T10:45:25;273.38;;;117.03;;
76617;SDS011;65509;42.816;74.648;2024-02-28T10:47:51;266.65;;;118.50;;
76617;SDS011;65509;42.816;74.648;2024-02-28T10:50:17;245.75;;;112.68;;
76617;SDS011;65509;42.816;74.648;2024-02-28T10:52:43;282.35;;;123.30;;
76617;SDS011;65509;42.816;74.648;2024-02-28T10:55:11;257.90;;;121.47;;
76617;SDS011;65509;42.816;74.648;2024-02-28T10:57:37;265.73;;;121.38;;
76617;SDS011;65509;42.816;74.648;2024-02-28T11:00:04;274.27;;;122.10;;
76617;SDS011;65509;42.816;74.648;2024-02-28T11:02:31;270.35;;;116.47;;
76617;SDS011;65509;42.816;74.648;2024-02-28T11:04:57;272.80;;;118.72;;
76617;SDS011;65509;42.816;74.648;2024-02-28T11:07:24;299.17;;;116.88;;
76617;SDS011;65509;42.816;74.648;2024-02-28T11:09:53;258.77;;;115.22;;
76617;SDS011;65509;42.816;74.648;2024-02-28T11:12:28;264.38;;;71.85;;
76617;SDS011;65509;42.816;74.648;2024-02-28T11:15:00;246.23;;;112.55;;
76617;SDS011;65509;42.816;74.648;2024-02-28T11:17:27;264.42;;;106.03;;
76617;SDS011;65509;42.816;74.648;2024-02-28T11:19:54;256.48;;;69.57;;
76617;SDS011;65509;42.816;74.648;2024-02-28T11:22:20;244.82;;;104.93;;
76617;SDS011;65509;42.816;74.648;2024-02-28T11:24:46;254.95;;;70.22;;
76617;SDS011;65509;42.816;74.648;2024-02-28T11:27:12;241.52;;;64.72;;
76617;SDS011;65509;42.816;74.648;2024-02-28T11:29:41;247.05;;;65.90;;
76617;SDS011;65509;42.816;74.648;2024-02-28T11:32:06;232.45;;;104.93;;
76617;SDS011;65509;42.816;74.648;2024-02-28T11:34:33;249.35;;;64.38;;
76617;SDS011;65509;42.816;74.648;2024-02-28T11:36:59;226.70;;;62.50;;
76617;SDS011;65509;42.816;74.648;2024-02-28T11:39:24;263.02;;;68.68;;
76617;SDS011;65509;42.816;74.648;2024-02-28T11:41:51;236.82;;;67.55;;
76617;SDS011;65509;42.816;74.648;2024-02-28T11:44:17;251.10;;;64.85;;
76617;SDS011;65509;42.816;74.648;2024-02-28T11:46:46;264.15;;;70.07;;
76617;SDS011;65509;42.816;74.648;2024-02-28T11:49:14;229.77;;;64.65;;
76617;SDS011;65509;42.816;74.648;2024-02-28T11:51:40;265.55;;;65.38;;
76617;SDS011;65509;42.816;74.648;2024-02-28T11:54:06;273.58;;;65.65;;
76617;SDS011;65509;42.816;74.648;2024-02-28T11:56:32;266.20;;;68.80;;
76617;SDS011;65509;42.816;74.648;2024-02-28T11:58:58;241.60;;;65.13;;
76617;SDS011;65509;42.816;74.648;2024-02-28T12:01:36;258.35;;;66.13;;
76617;SDS011;65509;42.816;74.648;2024-02-28T12:04:02;262.48;;;69.18;;
76617;SDS011;65509;42.816;74.648;2024-02-28T12:06:28;245.05;;;63.17;;
76617;SDS011;65509;42.816;74.648;2024-02-28T12:08:54;241.23;;;65.60;;
76617;SDS011;65509;42.816;74.648;2024-02-28T12:11:19;245.98;;;66.05;;
76617;SDS011;65509;42.816;74.648;2024-02-28T12:13:45;243.00;;;63.28;;
76617;SDS011;65509;42.816;74.648;2024-02-28T12:16:10;231.85;;;66.55;;
76617;SDS011;65509;42.816;74.648;2024-02-28T12:18:36;246.32;;;65.50;;
76617;SDS011;65509;42.816;74.648;2024-02-28T12:21:02;263.00;;;64.85;;
76617;SDS011;65509;42.816;74.648;2024-02-28T12:23:27;266.38;;;66.78;;
76617;SDS011;65509;42.816;74.648;2024-02-28T12:25:54;230.25;;;65.03;;
76617;SDS011;65509;42.816;74.648;2024-02-28T12:28:19;268.35;;;75.60;;
76617;SDS011;65509;42.816;74.648;2024-02-28T12:30:44;278.08;;;68.95;;
76617;SDS011;65509;42.816;74.648;2024-02-28T12:33:10;273.15;;;68.93;;
76617;SDS011;65509;42.816;74.648;2024-02-28T12:35:39;250.02;;;67.93;;
76617;SDS011;65509;42.816;74.648;2024-02-28T12:38:04;275.00;;;78.07;;
76617;SDS011;65509;42.816;74.648;2024-02-28T12:40:30;290.73;;;76.68;;
76617;SDS011;65509;42.816;74.648;2024-02-28T12:42:56;262.90;;;74.20;;
76617;SDS011;65509;42.816;74.648;2024-02-28T12:45:21;284.10;;;75.15;;
76617;SDS011;65509;42.816;74.648;2024-02-28T12:47:47;250.88;;;70.45;;
76617;SDS011;65509;42.816;74.648;2024-02-28T12:50:12;261.08;;;71.60;;
76617;SDS011;65509;42.816;74.648;2024-02-28T12:52:37;293.48;;;76.32;;
76617;SDS011;65509;42.816;74.648;2024-02-28T12:55:03;269.50;;;75.47;;
76617;SDS011;65509;42.816;74.648;2024-02-28T12:57:28;285.88;;;75.93;;
76617;SDS011;65509;42.816;74.648;2024-02-28T12:59:54;277.20;;;75.97;;
76617;SDS011;65509;42.816;74.648;2024-02-28T13:02:21;300.73;;;77.43;;
76617;SDS011;65509;42.816;74.648;2024-02-28T13:04:47;259.35;;;70.70;;
76617;SDS011;65509;42.816;74.648;2024-02-28T13:07:12;262.20;;;72.57;;
76617;SDS011;65509;42.816;74.648;2024-02-28T13:09:38;242.00;;;65.35;;
76617;SDS011;65509;42.816;74.648;2024-02-28T13:12:03;257.80;;;70.38;;
76617;SDS011;65509;42.816;74.648;2024-02-28T13:14:30;275.88;;;75.38;;
76617;SDS011;65509;42.816;74.648;2024-02-28T13:16:55;280.67;;;74.65;;
76617;SDS011;65509;42.816;74.648;2024-02-28T13:19:21;250.02;;;72.88;;
76617;SDS011;65509;42.816;74.648;2024-02-28T13:21:49;257.33;;;71.75;;
76617;SDS011;65509;42.816;74.648;2024-02-28T13:24:14;253.05;;;68.00;;
76617;SDS011;65509;42.816;74.648;2024-02-28T13:26:41;257.80;;;72.22;;
76617;SDS011;65509;42.816;74.648;2024-02-28T13:29:07;239.18;;;65.32;;
76617;SDS011;65509;42.816;74.648;2024-02-28T13:31:32;255.32;;;65.15;;
76617;SDS011;65509;42.816;74.648;2024-02-28T13:33:58;235.95;;;64.40;;
76617;SDS011;65509;42.816;74.648;2024-02-28T13:36:23;220.77;;;64.70;;
76617;SDS011;65509;42.816;74.648;2024-02-28T13:38:49;235.30;;;64.85;;
76617;SDS011;65509;42.816;74.648;2024-02-28T13:41:14;255.10;;;64.82;;
76617;SDS011;65509;42.816;74.648;2024-02-28T13:43:41;272.45;;;69.63;;
76617;SDS011;65509;42.816;74.648;2024-02-28T13:46:06;270.98;;;67.88;;
76617;SDS011;65509;42.816;74.648;2024-02-28T13:48:32;270.85;;;69.78;;
76617;SDS011;65509;42.816;74.648;2024-02-28T13:50:59;263.50;;;65.97;;
76617;SDS011;65509;42.816;74.648;2024-02-28T13:53:24;233.75;;;65.38;;